Terminal Aerodrome Forecast
Issued by NWS

Home | Current Version | Previous Version | Text Only | Print | Product List | Glossary On
Versions: 1 2 3 4 5 6 7 8 9 10 11 12 13 14 15 16 17 18 19 20 21 22 23 24 25 26 27 28 29 30 31 32 33 34 35 36 37 38 39 40 41
000
FTUS46 KOTX 272330
TAFSFF
TAF
KSFF 272330Z 2800/2824 24011G17KT P6SM VCSH BKN040 OVC050
     FM280600 25004KT P6SM SCT045 OVC060
     FM281200 21006KT P6SM FEW015 BKN070
     FM281800 23007G12KT P6SM BKN050 PROB30 2820/2824 -SHRA=

USA.gov is the U.S. government's official web portal to all federal, state and local government web resources and services.